Terminal Aerodrome Forecast
Issued by NWS St Louis, MO

Home | Current Version | Previous Version | Text Only | Print | Product List | Glossary On
Versions: 1 2 3 4 5 6 7 8 9 10 11 12 13 14 15 16 17 18 19 20 21 22 23 24
002
FTUS43 KLSX 211139
TAFCOU
TAF
KCOU 211139Z 2112/2212 36012KT P6SM OVC015
     FM211500 01012G22KT P6SM OVC150
     FM212000 04012KT P6SM OVC200
     FM220300 05010KT P6SM VCSH OVC030
     FM220600 05011KT P6SM -FZRA OVC015=

USA.gov is the U.S. government's official web portal to all federal, state and local government web resources and services.